Time;durP1;ratioP1;P1;durP2;ratioP2;P2;SDS_P1;SDS_P2;PMS_P1;PMS_P2;Temp;Humidity;BMP_temperature;BMP_pressure;BME280_temperature;BME280_humidity;BME280_pressure;Samples;Min_cycle;Max_cycle;Signal;HPM_P1;HPM_P2
2022/10/17 00:02:23;;;;;;;26.38;5.78;;;;;;;9.29;nan;94517.47;4910813;29;20052;-66
2022/10/17 00:04:50;;;;;;;20.85;6.00;;;;;;;9.25;nan;94513.94;4931636;29;20098;-66
2022/10/17 00:07:17;;;;;;;33.33;6.33;;;;;;;9.25;nan;94513.94;4931470;29;20043;-66
2022/10/17 00:09:44;;;;;;;12.30;5.35;;;;;;;9.28;nan;94523.38;4934447;29;20044;-66
2022/10/17 00:12:10;;;;;;;43.40;6.47;;;;;;;9.32;nan;94515.94;4934511;29;20056;-67
2022/10/17 00:14:37;;;;;;;20.42;5.90;;;;;;;9.20;nan;94520.63;4935320;29;20040;-67
2022/10/17 00:17:04;;;;;;;27.38;9.48;;;;;;;9.25;nan;94522.16;4934781;29;20039;-67
2022/10/17 00:19:31;;;;;;;40.50;18.17;;;;;;;9.18;nan;94522.19;4935148;29;20094;-67
2022/10/17 00:21:58;;;;;;;21.30;6.55;;;;;;;9.12;nan;94529.22;4935073;29;20117;-67
2022/10/17 00:24:25;;;;;;;40.92;5.70;;;;;;;8.96;nan;94521.41;4934636;29;20054;-67
2022/10/17 00:26:52;;;;;;;16.10;4.88;;;;;;;8.98;nan;94522.56;4935064;29;20408;-67
2022/10/17 00:29:18;;;;;;;23.15;4.90;;;;;;;9.02;nan;94530.78;4934551;29;20047;-67
2022/10/17 00:31:45;;;;;;;21.07;4.77;;;;;;;9.02;nan;94525.31;4934954;29;20106;-67
2022/10/17 00:34:12;;;;;;;24.17;4.82;;;;;;;9.00;nan;94530.41;4934298;29;20047;-67
2022/10/17 00:36:39;;;;;;;21.85;4.70;;;;;;;8.97;nan;94528.41;4934818;29;20046;-67
2022/10/17 00:39:06;;;;;;;10.75;4.70;;;;;;;9.02;nan;94522.56;4934500;29;20047;-67
2022/10/17 00:41:33;;;;;;;12.60;4.60;;;;;;;8.96;nan;94524.91;4934749;29;20059;-66
2022/10/17 00:44:01;;;;;;;32.03;5.03;;;;;;;8.94;nan;94523.75;4934769;29;20050;-66
2022/10/17 00:46:31;;;;;;;12.05;6.35;;;;;;;9.03;nan;94524.13;4933774;29;20658;-66
2022/10/17 00:49:01;;;;;;;78.50;11.75;;;;;;;9.02;nan;94524.53;4934667;29;20054;-66
2022/10/17 00:51:50;;;;;;;44.38;17.75;;;;;;;8.95;nan;94526.09;4916945;29;21759;-67
2022/10/17 00:54:21;;;;;;;13.88;6.00;;;;;;;8.80;nan;94528.03;4933856;29;20047;-66
2022/10/17 00:56:50;;;;;;;10.70;5.33;;;;;;;8.89;nan;94519.41;4934574;29;20074;-67
2022/10/17 00:59:18;;;;;;;11.13;5.32;;;;;;;8.98;nan;94522.56;4933792;29;20056;-69
2022/10/17 01:02:08;;;;;;;20.45;6.25;;;;;;;9.02;nan;94521.78;4932798;29;20046;-67
2022/10/17 01:04:36;;;;;;;16.40;6.32;;;;;;;9.07;nan;94527.66;4916274;29;20519;-67
2022/10/17 01:07:03;;;;;;;18.10;6.30;;;;;;;9.06;nan;94528.81;4933787;29;20052;-66
2022/10/17 01:09:30;;;;;;;67.63;7.03;;;;;;;8.99;nan;94526.06;4934225;29;20043;-66
2022/10/17 01:12:15;;;;;;;13.27;6.15;;;;;;;8.99;nan;94532.34;4934350;29;20044;-66
2022/10/17 01:14:54;;;;;;;14.13;5.95;;;;;;;8.97;nan;94531.97;4933384;29;21518;-67
2022/10/17 01:17:59;;;;;;;31.95;6.90;;;;;;;8.98;nan;94543.69;4933724;29;20058;-67
2022/10/17 01:21:04;;;;;;;25.85;6.65;;;;;;;9.05;nan;94543.69;4930475;29;20511;-67
2022/10/17 01:23:52;;;;;;;44.73;7.03;;;;;;;9.04;nan;94538.63;4933225;29;20609;-67
2022/10/17 01:26:41;;;;;;;16.65;6.57;;;;;;;9.10;nan;94540.56;4933406;29;20051;-67
2022/10/17 01:29:29;;;;;;;30.98;7.47;;;;;;;9.12;nan;94540.19;4916165;29;20039;-67
2022/10/17 01:32:21;;;;;;;16.60;6.97;;;;;;;9.12;nan;94531.97;4922080;29;20036;-66
2022/10/17 01:34:59;;;;;;;20.83;7.85;;;;;;;9.19;nan;94538.22;4932733;29;20059;-67
2022/10/17 01:37:46;;;;;;;100.00;8.03;;;;;;;9.04;nan;94536.66;4933613;29;20050;-67
2022/10/17 01:40:23;;;;;;;27.08;7.20;;;;;;;9.08;nan;94536.66;4933202;29;20046;-66
2022/10/17 01:43:02;;;;;;;79.95;28.17;;;;;;;9.09;nan;94530.00;4933885;29;20048;-67
2022/10/17 01:45:36;;;;;;;40.20;8.15;;;;;;;9.05;nan;94538.19;4932543;29;21552;-67
2022/10/17 01:48:10;;;;;;;28.85;7.03;;;;;;;9.03;nan;94529.59;4933261;29;20047;-66
2022/10/17 01:50:44;;;;;;;70.60;7.57;;;;;;;9.06;nan;94530.78;4933431;29;20044;-67
2022/10/17 01:53:17;;;;;;;44.85;7.05;;;;;;;9.07;nan;94538.59;4932583;29;20489;-67
2022/10/17 01:55:46;;;;;;;44.53;7.05;;;;;;;9.13;nan;94531.56;4933258;29;20058;-66
2022/10/17 01:58:29;;;;;;;129.52;9.07;;;;;;;8.94;nan;94530.00;4932862;29;20047;-67
2022/10/17 02:00:59;;;;;;;31.88;6.57;;;;;;;8.98;nan;94525.31;4933352;29;20094;-67
2022/10/17 02:03:27;;;;;;;45.83;7.30;;;;;;;8.86;nan;94533.13;4932710;29;20656;-67
2022/10/17 02:05:54;;;;;;;60.22;6.15;;;;;;;8.77;nan;94538.94;4933384;29;20050;-67
2022/10/17 02:08:38;;;;;;;42.72;6.95;;;;;;;8.80;nan;94538.97;4932763;29;20486;-67
2022/10/17 02:11:13;;;;;;;32.08;5.85;;;;;;;8.85;nan;94537.00;4920168;29;20062;-67
2022/10/17 02:13:39;;;;;;;29.08;5.75;;;;;;;8.71;nan;94541.31;4933026;29;20049;-66
2022/10/17 02:16:28;;;;;;;18.50;5.53;;;;;;;8.64;nan;94540.50;4932174;29;20040;-67
2022/10/17 02:19:17;;;;;;;45.83;6.07;;;;;;;8.55;nan;94547.13;4933033;29;20047;-67
2022/10/17 02:22:05;;;;;;;16.80;5.55;;;;;;;8.65;nan;94544.78;4915215;29;20877;-67
2022/10/17 02:24:46;;;;;;;18.63;5.43;;;;;;;8.63;nan;94549.88;4931915;29;21788;-66
2022/10/17 02:27:24;;;;;;;37.88;5.82;;;;;;;8.60;nan;94546.75;4932377;29;20039;-67
2022/10/17 02:30:05;;;;;;;51.13;6.00;;;;;;;8.55;nan;94540.84;4932961;29;20782;-67
2022/10/17 02:32:50;;;;;;;41.55;6.20;;;;;;;8.52;nan;94542.44;4928949;29;20678;-67
2022/10/17 02:35:20;;;;;;;24.08;6.35;;;;;;;8.57;nan;94547.53;4932356;29;20048;-67
2022/10/17 02:37:47;;;;;;;15.27;5.53;;;;;;;8.62;nan;94540.88;4916020;29;20094;-67
2022/10/17 02:40:17;;;;;;;22.52;5.88;;;;;;;8.57;nan;94554.94;4915301;29;20040;-68
2022/10/17 02:42:45;;;;;;;51.90;6.07;;;;;;;8.45;nan;94547.09;4932407;29;20055;-68
2022/10/17 02:45:13;;;;;;;70.90;6.18;;;;;;;8.50;nan;94552.19;4931957;29;20045;-67
2022/10/17 02:47:46;;;;;;;45.15;6.88;;;;;;;8.52;nan;94553.38;4932395;29;20071;-67
2022/10/17 02:50:13;;;;;;;29.92;5.60;;;;;;;8.55;nan;94549.06;4932054;29;20052;-67
2022/10/17 02:52:51;;;;;;;67.28;7.45;;;;;;;8.52;nan;94547.91;4932052;29;20044;-67
2022/10/17 02:55:27;;;;;;;16.30;5.73;;;;;;;8.54;nan;94547.50;4931902;29;20492;-67
2022/10/17 02:57:59;;;;;;;56.15;6.93;;;;;;;8.46;nan;94543.97;4932340;29;20050;-68
2022/10/17 03:00:28;;;;;;;45.10;6.30;;;;;;;8.38;nan;94545.88;4931480;29;20659;-67
2022/10/17 03:02:55;;;;;;;19.98;6.32;;;;;;;8.46;nan;94543.19;4932299;29;20047;-67
2022/10/17 03:05:25;;;;;;;38.53;5.95;;;;;;;8.45;nan;94539.69;4931704;29;20047;-67
2022/10/17 03:07:53;;;;;;;27.60;6.00;;;;;;;8.46;nan;94540.47;4931990;29;20043;-68
2022/10/17 03:10:21;;;;;;;33.05;6.57;;;;;;;8.46;nan;94538.50;4931723;29;20512;-67
2022/10/17 03:12:48;;;;;;;16.90;6.18;;;;;;;8.37;nan;94549.78;4932234;29;20051;-67
2022/10/17 03:15:15;;;;;;;27.23;6.05;;;;;;;8.37;nan;94543.50;4931483;29;20077;-67
2022/10/17 03:17:42;;;;;;;30.98;6.13;;;;;;;8.30;nan;94538.81;4932058;29;20044;-68
2022/10/17 03:20:14;;;;;;;37.10;6.33;;;;;;;8.33;nan;94551.72;4931611;29;20047;-68
2022/10/17 03:22:40;;;;;;;84.70;6.70;;;;;;;8.24;nan;94548.56;4915043;29;20040;-67
2022/10/17 03:25:07;;;;;;;99.45;7.43;;;;;;;8.13;nan;94554.00;4931424;29;20053;-67
2022/10/17 03:27:34;;;;;;;26.30;6.53;;;;;;;8.12;nan;94555.16;4931850;29;20047;-68
2022/10/17 03:30:01;;;;;;;33.47;6.00;;;;;;;8.20;nan;94555.97;4931965;29;20058;-67
2022/10/17 03:32:27;;;;;;;86.47;7.37;;;;;;;7.97;nan;94556.25;4929522;29;20871;-67
2022/10/17 03:34:54;;;;;;;36.70;6.18;;;;;;;7.92;nan;94556.63;4931615;29;20051;-67
2022/10/17 03:37:21;;;;;;;37.30;6.60;;;;;;;8.00;nan;94560.94;4931323;29;20059;-67
2022/10/17 03:39:48;;;;;;;31.63;6.18;;;;;;;8.06;nan;94558.63;4931960;29;20054;-67
2022/10/17 03:42:14;;;;;;;15.45;5.78;;;;;;;8.12;nan;94555.16;4931492;29;20047;-67
2022/10/17 03:44:41;;;;;;;31.70;6.13;;;;;;;8.05;nan;94565.25;4934835;29;20441;-68
2022/10/17 03:47:08;;;;;;;25.92;10.13;;;;;;;8.04;nan;94558.25;4935151;29;20040;-67
2022/10/17 03:49:37;;;;;;;28.20;6.10;;;;;;;7.86;nan;94571.81;4935911;29;20058;-67
2022/10/17 03:52:04;;;;;;;53.22;6.32;;;;;;;7.77;nan;94567.47;4934789;29;20043;-67
2022/10/17 03:54:31;;;;;;;25.50;5.70;;;;;;;7.67;nan;94572.88;4935659;29;20050;-69
2022/10/17 03:56:57;;;;;;;20.23;11.30;;;;;;;7.76;nan;94567.84;4935591;29;20043;-68
2022/10/17 03:59:24;;;;;;;47.63;10.18;;;;;;;7.80;nan;94576.84;4935210;29;20430;-68
2022/10/17 04:01:51;;;;;;;55.63;8.90;;;;;;;7.85;nan;94576.50;4935473;29;20035;-68
2022/10/17 04:04:18;;;;;;;39.95;6.80;;;;;;;7.68;nan;94572.47;4934814;29;20532;-67
2022/10/17 04:06:44;;;;;;;47.65;6.65;;;;;;;7.64;nan;94571.66;4935400;29;20397;-68
2022/10/17 04:09:11;;;;;;;44.23;6.50;;;;;;;7.68;nan;94575.22;4934405;29;20043;-67
2022/10/17 04:11:38;;;;;;;21.13;6.18;;;;;;;7.71;nan;94579.94;4935424;29;20054;-67
2022/10/17 04:14:05;;;;;;;109.90;7.28;;;;;;;7.56;nan;94579.03;4934702;29;20050;-68
2022/10/17 04:16:32;;;;;;;50.42;8.30;;;;;;;7.57;nan;94575.16;4918156;29;20437;-67
2022/10/17 04:18:59;;;;;;;48.83;7.68;;;;;;;7.63;nan;94577.53;4935065;29;20058;-67
2022/10/17 04:21:27;;;;;;;33.33;6.70;;;;;;;7.26;nan;94587.38;4934099;29;20130;-67
2022/10/17 04:23:56;;;;;;;40.20;6.40;;;;;;;7.32;nan;94585.88;4934944;29;20125;-67
2022/10/17 04:26:23;;;;;;;32.75;6.15;;;;;;;7.31;nan;94583.53;4934396;29;20043;-67
2022/10/17 04:28:50;;;;;;;43.30;8.80;;;;;;;7.33;nan;94587.47;4934986;29;20032;-68
2022/10/17 04:31:17;;;;;;;50.92;8.63;;;;;;;7.42;nan;94586.34;4932495;29;20044;-67
2022/10/17 04:33:49;;;;;;;43.47;6.93;;;;;;;7.38;nan;94587.13;4934780;29;20055;-66
2022/10/17 04:36:18;;;;;;;71.97;6.45;;;;;;;7.19;nan;94588.13;4934125;29;20056;-69
2022/10/17 04:38:45;;;;;;;21.73;6.68;;;;;;;7.27;nan;94588.97;4934676;29;20036;-67
2022/10/17 04:41:15;;;;;;;16.60;7.13;;;;;;;7.29;nan;94585.88;4934297;29;20511;-67
2022/10/17 04:43:42;;;;;;;21.60;9.27;;;;;;;7.37;nan;94591.00;4934500;29;20058;-67
2022/10/17 04:46:13;;;;;;;33.00;14.43;;;;;;;7.28;nan;94595.22;4934026;29;20044;-67
2022/10/17 04:48:40;;;;;;;39.05;10.73;;;;;;;7.29;nan;94591.31;4934392;29;20051;-67
2022/10/17 04:51:12;;;;;;;37.15;10.63;;;;;;;7.31;nan;94589.00;4933898;29;20047;-67
2022/10/17 04:53:41;;;;;;;21.60;7.65;;;;;;;7.35;nan;94589.81;4934167;29;20379;-67
2022/10/17 04:56:13;;;;;;;44.75;6.70;;;;;;;7.23;nan;94581.91;4933893;28;20047;-66
2022/10/17 04:58:41;;;;;;;16.80;5.80;;;;;;;7.26;nan;94586.59;4934260;29;20054;-68
2022/10/17 05:01:11;;;;;;;27.35;7.80;;;;;;;7.23;nan;94585.44;4933877;29;20046;-67
2022/10/17 05:03:39;;;;;;;15.55;7.65;;;;;;;7.32;nan;94585.09;4934287;29;20050;-68
2022/10/17 05:06:08;;;;;;;18.48;7.72;;;;;;;7.28;nan;94587.00;4933830;29;20050;-68
2022/10/17 05:08:36;;;;;;;44.10;9.40;;;;;;;7.07;nan;94588.41;4917100;29;20062;-68
2022/10/17 05:11:04;;;;;;;20.27;7.60;;;;;;;7.13;nan;94578.72;4916759;29;20821;-69
2022/10/17 05:13:32;;;;;;;11.25;6.60;;;;;;;7.11;nan;94583.75;4933821;29;20048;-68
2022/10/17 05:16:00;;;;;;;21.08;7.30;;;;;;;7.00;nan;94582.88;4934032;29;20040;-67
2022/10/17 05:18:28;;;;;;;11.30;6.32;;;;;;;7.08;nan;94584.50;4900202;29;20489;-67
2022/10/17 05:20:54;;;;;;;13.05;5.70;;;;;;;7.13;nan;94591.59;4933266;29;20051;-69
2022/10/17 05:23:21;;;;;;;10.93;5.70;;;;;;;7.08;nan;94589.97;4932895;29;20047;-68
2022/10/17 05:25:53;;;;;;;12.30;5.40;;;;;;;7.15;nan;94590.03;4933739;29;20035;-68
2022/10/17 05:28:21;;;;;;;11.35;6.50;;;;;;;7.22;nan;94596.72;4933308;29;20042;-67
2022/10/17 05:30:47;;;;;;;13.27;6.00;;;;;;;7.23;nan;94592.84;4933942;29;20040;-68
2022/10/17 05:33:14;;;;;;;10.25;5.93;;;;;;;7.32;nan;94596.78;4933462;29;20050;-67
2022/10/17 05:35:41;;;;;;;12.53;6.50;;;;;;;7.34;nan;94582.78;4920186;29;20046;-67
2022/10/17 05:38:08;;;;;;;11.73;6.38;;;;;;;7.30;nan;94606.53;4933128;29;20047;-68
2022/10/17 05:40:35;;;;;;;12.52;6.25;;;;;;;7.32;nan;94596.03;4933740;29;20044;-68
2022/10/17 05:43:01;;;;;;;14.73;8.00;;;;;;;7.37;nan;94604.66;4932849;29;20047;-67
2022/10/17 05:45:28;;;;;;;15.57;8.80;;;;;;;7.42;nan;94611.69;4933704;29;20044;-68
2022/10/17 05:47:56;;;;;;;17.97;7.67;;;;;;;7.46;nan;94612.50;4933617;29;20051;-68
2022/10/17 05:50:24;;;;;;;19.95;7.28;;;;;;;7.50;nan;94615.28;4931534;29;22452;-68
2022/10/17 05:52:54;;;;;;;13.05;7.00;;;;;;;7.48;nan;94617.59;4932609;29;20036;-69
2022/10/17 05:55:22;;;;;;;35.10;7.50;;;;;;;7.36;nan;94614.03;4915207;29;20535;-68
2022/10/17 05:57:51;;;;;;;20.15;8.05;;;;;;;7.28;nan;94619.78;4931316;29;20036;-69
2022/10/17 06:00:19;;;;;;;25.63;7.40;;;;;;;7.31;nan;94619.03;4931491;29;20404;-68
2022/10/17 06:02:46;;;;;;;22.45;6.95;;;;;;;7.21;nan;94628.69;4931663;29;20055;-69
2022/10/17 06:05:14;;;;;;;22.60;7.60;;;;;;;7.23;nan;94626.38;4931198;29;20048;-69
2022/10/17 06:07:40;;;;;;;14.05;7.25;;;;;;;7.36;nan;94629.59;4931090;29;20040;-69
2022/10/17 06:10:08;;;;;;;14.63;7.43;;;;;;;7.38;nan;94635.47;4931763;29;20048;-69
2022/10/17 06:12:35;;;;;;;17.23;7.33;;;;;;;7.54;nan;94640.66;4931950;29;20628;-68
2022/10/17 06:15:02;;;;;;;18.23;7.90;;;;;;;7.45;nan;94638.25;4915289;29;20050;-68
2022/10/17 06:17:29;;;;;;;14.23;6.75;;;;;;;7.62;nan;94646.97;4934307;29;20044;-71
2022/10/17 06:19:56;;;;;;;24.58;6.13;;;;;;;7.47;nan;94646.09;4932432;29;20043;-69
2022/10/17 06:22:23;;;;;;;24.50;6.18;;;;;;;7.39;nan;94643.28;4931933;29;20040;-69
2022/10/17 06:24:51;;;;;;;21.97;5.93;;;;;;;7.35;nan;94650.66;4931700;29;20477;-70
2022/10/17 06:27:18;;;;;;;74.45;7.05;;;;;;;7.28;nan;94652.53;4932370;29;20048;-69
2022/10/17 06:29:46;;;;;;;19.73;6.50;;;;;;;7.42;nan;94652.66;4932078;29;20396;-70
2022/10/17 06:32:13;;;;;;;70.05;6.82;;;;;;;7.49;nan;94657.41;4932026;29;20102;-69
2022/10/17 06:34:40;;;;;;;15.18;6.07;;;;;;;7.59;nan;94659.44;4931705;29;20043;-69
2022/10/17 06:37:07;;;;;;;26.00;6.30;;;;;;;7.64;nan;94663.78;4931768;29;20046;-69
2022/10/17 06:39:35;;;;;;;14.13;6.00;;;;;;;7.61;nan;94662.59;4932402;29;20044;-70
2022/10/17 06:42:03;;;;;;;20.38;7.07;;;;;;;7.67;nan;94668.50;4932007;29;20054;-68
2022/10/17 06:44:30;;;;;;;18.40;7.80;;;;;;;7.91;nan;94675.31;4932589;29;20040;-70
2022/10/17 06:46:58;;;;;;;29.30;7.82;;;;;;;8.27;nan;94668.13;4932190;29;20043;-70
2022/10/17 06:49:26;;;;;;;23.07;8.13;;;;;;;8.40;nan;94674.03;4931806;29;20074;-70
2022/10/17 06:51:53;;;;;;;17.05;8.25;;;;;;;8.84;nan;94678.56;4931817;29;20039;-69
2022/10/17 06:54:20;;;;;;;18.25;8.23;;;;;;;9.43;nan;94683.00;4931899;29;20050;-70
2022/10/17 06:56:47;;;;;;;18.95;8.07;;;;;;;9.96;nan;94685.78;4931829;29;20062;-70
2022/10/17 06:59:14;;;;;;;18.50;8.05;;;;;;;10.22;nan;94685.75;4931522;29;20243;-70
2022/10/17 07:01:41;;;;;;;17.30;8.20;;;;;;;10.77;nan;94685.25;4931568;29;20044;-70
2022/10/17 07:04:11;;;;;;;16.35;7.65;;;;;;;12.58;nan;94689.91;4931574;29;20493;-70
2022/10/17 07:06:38;;;;;;;14.85;7.75;;;;;;;13.87;nan;94687.47;4932057;29;20047;-70
2022/10/17 07:09:05;;;;;;;16.98;7.45;;;;;;;14.92;nan;94687.22;4929939;29;20043;-71
2022/10/17 07:11:34;;;;;;;14.68;7.03;;;;;;;15.14;nan;94695.88;4930099;29;20047;-68
2022/10/17 07:14:01;;;;;;;14.13;6.73;;;;;;;15.83;nan;94692.44;4932293;29;20489;-68
2022/10/17 07:16:28;;;;;;;15.20;7.05;;;;;;;16.40;nan;94697.81;4931409;29;20865;-68
2022/10/17 07:18:55;;;;;;;13.45;6.68;;;;;;;17.19;nan;94702.09;4931340;29;20056;-69
2022/10/17 07:21:22;;;;;;;13.23;6.90;;;;;;;17.91;nan;94703.56;4931823;29;20062;-69
2022/10/17 07:23:49;;;;;;;12.68;6.80;;;;;;;17.90;nan;94709.56;4932293;29;20054;-69
2022/10/17 07:26:17;;;;;;;19.53;6.80;;;;;;;19.14;nan;94715.00;4931650;29;20063;-69
2022/10/17 07:28:45;;;;;;;11.25;6.80;;;;;;;20.79;nan;94707.13;4932247;29;20051;-69
2022/10/17 07:31:15;;;;;;;12.88;6.68;;;;;;;20.87;nan;94713.94;4931776;29;20052;-69
2022/10/17 07:33:43;;;;;;;12.50;6.32;;;;;;;21.24;nan;94717.50;4932308;29;20039;-69
2022/10/17 07:36:10;;;;;;;11.15;6.35;;;;;;;20.66;nan;94715.59;4931791;29;20039;-69
2022/10/17 07:38:38;;;;;;;12.33;6.10;;;;;;;21.07;nan;94710.69;4932511;29;20048;-69
2022/10/17 07:41:08;;;;;;;10.15;5.32;;;;;;;18.54;nan;94720.63;4931700;29;20051;-69
2022/10/17 07:43:35;;;;;;;11.45;5.55;;;;;;;18.42;nan;94722.19;4932246;29;20040;-69
2022/10/17 07:46:04;;;;;;;11.10;6.18;;;;;;;19.74;nan;94718.81;4931697;29;20043;-71
2022/10/17 07:48:30;;;;;;;11.65;6.50;;;;;;;20.17;nan;94728.31;4932122;29;20152;-71
2022/10/17 07:51:01;;;;;;;13.40;6.70;;;;;;;19.65;nan;94727.09;4932176;29;20044;-70
2022/10/17 07:53:28;;;;;;;12.18;6.95;;;;;;;20.27;nan;94731.91;4930930;29;21666;-70
2022/10/17 07:55:55;;;;;;;12.35;6.78;;;;;;;20.06;nan;94730.72;4931808;29;20055;-68
2022/10/17 07:58:21;;;;;;;10.75;6.40;;;;;;;19.97;nan;94727.91;4931913;29;20050;-71
2022/10/17 08:00:49;;;;;;;15.13;6.47;;;;;;;20.26;nan;94724.75;4931945;29;20040;-69
2022/10/17 08:03:16;;;;;;;12.40;6.70;;;;;;;21.02;nan;94731.63;4931268;29;20052;-70
2022/10/17 08:05:43;;;;;;;9.82;6.22;;;;;;;23.10;nan;94727.59;4932017;29;20396;-68
2022/10/17 08:08:10;;;;;;;11.32;6.43;;;;;;;23.02;nan;94728.41;4931305;29;20042;-68
2022/10/17 08:10:37;;;;;;;11.30;6.28;;;;;;;22.13;nan;94723.88;4930687;29;20046;-70
2022/10/17 08:13:03;;;;;;;11.55;6.38;;;;;;;21.43;nan;94728.69;4931487;29;20047;-69
2022/10/17 08:15:30;;;;;;;12.20;6.30;;;;;;;22.31;nan;94728.63;4931870;29;20048;-69
2022/10/17 08:17:58;;;;;;;11.25;6.28;;;;;;;23.45;nan;94740.22;4931922;29;20061;-69
2022/10/17 08:20:25;;;;;;;12.15;6.40;;;;;;;22.12;nan;94736.28;4931509;29;20044;-69
2022/10/17 08:22:53;;;;;;;12.20;6.70;;;;;;;24.62;nan;94732.28;4931696;29;20040;-70
2022/10/17 08:25:20;;;;;;;11.18;6.40;;;;;;;24.91;nan;94739.84;4914507;29;20056;-69
2022/10/17 08:27:47;;;;;;;11.20;6.47;;;;;;;24.95;nan;94738.84;4931804;29;20047;-69
2022/10/17 08:30:15;;;;;;;12.60;5.80;;;;;;;24.29;nan;94744.53;4932904;29;20054;-68
2022/10/17 08:32:42;;;;;;;10.23;6.53;;;;;;;24.30;nan;94743.25;4935066;29;20066;-69
2022/10/17 08:35:09;;;;;;;11.55;6.03;;;;;;;25.87;nan;94740.19;4934476;29;20044;-70
2022/10/17 08:37:36;;;;;;;12.82;6.00;;;;;;;25.45;nan;94733.88;4935183;29;20066;-70
2022/10/17 08:40:03;;;;;;;9.60;6.03;;;;;;;25.58;nan;94741.19;4934560;29;20047;-67
2022/10/17 08:42:57;;;;;;;9.90;5.65;;;;;;;26.83;nan;94746.63;4934871;29;20048;-69
2022/10/17 08:45:42;;;;;;;9.30;5.82;;;;;;;27.43;nan;94743.88;4934480;29;20047;-69
2022/10/17 08:48:14;;;;;;;10.05;5.80;;;;;;;25.28;nan;94741.34;4934576;29;20496;-68
2022/10/17 08:50:46;;;;;;;10.30;6.10;;;;;;;24.62;nan;94743.50;4934737;29;20047;-68
2022/10/17 08:53:35;;;;;;;9.53;5.27;;;;;;;27.00;nan;94747.47;4934320;29;20044;-68
2022/10/17 08:56:14;;;;;;;8.93;5.40;;;;;;;28.46;nan;94749.19;4934102;29;20047;-68
2022/10/17 08:58:45;;;;;;;12.27;5.60;;;;;;;29.28;nan;94753.72;4934808;29;20050;-69
2022/10/17 09:01:18;;;;;;;8.10;5.13;;;;;;;27.25;nan;94743.03;4933867;29;20044;-69
2022/10/17 09:04:00;;;;;;;10.93;5.30;;;;;;;25.02;nan;94744.81;4934601;29;20501;-68
2022/10/17 09:06:33;;;;;;;8.57;5.13;;;;;;;25.74;nan;94746.19;4933199;29;20636;-69
2022/10/17 09:09:08;;;;;;;10.40;5.40;;;;;;;26.41;nan;94734.03;4933710;29;20051;-68
2022/10/17 09:12:12;;;;;;;10.63;5.63;;;;;;;27.43;nan;94750.28;4931370;29;20815;-69
2022/10/17 09:14:45;;;;;;;11.30;5.63;;;;;;;28.71;nan;94741.75;4933647;29;20099;-69
2022/10/17 09:17:30;;;;;;;12.40;5.20;;;;;;;29.15;nan;94742.19;4933619;29;20044;-68
2022/10/17 09:20:10;;;;;;;9.57;5.00;;;;;;;29.67;nan;94739.38;4934275;29;20400;-69
2022/10/17 09:22:46;;;;;;;10.90;5.25;;;;;;;29.10;nan;94752.19;4933371;29;20586;-68
2022/10/17 09:25:18;;;;;;;10.73;5.50;;;;;;;29.56;nan;94755.63;4920278;29;20503;-68
2022/10/17 09:27:52;;;;;;;8.27;5.43;;;;;;;29.68;nan;94751.50;4917461;29;20052;-69
2022/10/17 09:30:19;;;;;;;10.05;5.88;;;;;;;29.72;nan;94748.41;4933200;29;20055;-69
2022/10/17 09:33:23;;;;;;;8.87;5.77;;;;;;;31.17;nan;94748.56;4933564;29;20057;-69
2022/10/17 09:36:16;;;;;;;8.45;5.20;;;;;;;32.60;nan;94738.41;4933033;29;20079;-69
2022/10/17 09:38:49;;;;;;;8.88;5.43;;;;;;;32.72;nan;94741.03;4933955;29;20047;-69
2022/10/17 09:41:19;;;;;;;7.78;4.80;;;;;;;33.54;nan;94744.16;4932622;29;20086;-68
2022/10/17 09:44:30;;;;;;;7.22;3.90;;;;;;;31.57;nan;94736.75;4933123;29;20481;-68
2022/10/17 09:47:09;;;;;;;7.53;3.80;;;;;;;32.36;nan;94736.44;4933887;29;20048;-69
2022/10/17 09:49:41;;;;;;;7.78;3.60;;;;;;;30.28;nan;94736.72;4932685;29;20036;-68
2022/10/17 09:52:16;;;;;;;6.72;4.00;;;;;;;32.20;nan;94734.63;4932996;29;20042;-67
2022/10/17 09:54:50;;;;;;;5.68;3.60;;;;;;;31.29;nan;94726.53;4933613;29;20047;-69
2022/10/17 09:57:19;;;;;;;5.40;3.50;;;;;;;31.63;nan;94726.09;4932896;29;20047;-69
2022/10/17 09:59:58;;;;;;;6.40;3.40;;;;;;;31.85;nan;94733.53;4933471;29;20042;-69
2022/10/17 10:02:28;;;;;;;7.38;3.50;;;;;;;31.09;nan;94732.66;4933017;29;20039;-68
2022/10/17 10:05:03;;;;;;;8.50;3.60;;;;;;;33.41;nan;94733.59;4933431;29;20056;-68
2022/10/17 10:07:37;;;;;;;8.65;3.28;;;;;;;34.13;nan;94724.81;4932661;29;20429;-68
2022/10/17 10:10:07;;;;;;;7.30;3.42;;;;;;;32.71;nan;94740.28;4931267;29;20050;-68
2022/10/17 10:12:37;;;;;;;6.23;2.90;;;;;;;33.54;nan;94739.25;4933403;29;20520;-68
2022/10/17 10:15:34;;;;;;;8.60;3.10;;;;;;;33.02;nan;94724.47;4932750;29;20062;-69
2022/10/17 10:18:02;;;;;;;5.20;2.70;;;;;;;33.61;nan;94735.78;4920007;29;20044;-69
2022/10/17 10:20:35;;;;;;;5.45;3.00;;;;;;;32.99;nan;94739.00;4915804;29;20048;-69
2022/10/17 10:23:13;;;;;;;5.60;2.97;;;;;;;32.89;nan;94738.66;4932571;29;20045;-70
2022/10/17 10:25:54;;;;;;;5.30;2.73;;;;;;;30.01;nan;94729.97;4932680;29;20056;-68
2022/10/17 10:28:28;;;;;;;4.88;2.90;;;;;;;29.03;nan;94739.34;4932672;29;20412;-68
2022/10/17 10:30:57;;;;;;;6.35;2.65;;;;;;;28.35;nan;94744.28;4933029;29;20047;-69
2022/10/17 10:33:27;;;;;;;6.35;2.83;;;;;;;27.77;nan;94739.09;4932790;29;20050;-68
2022/10/17 10:36:00;;;;;;;4.75;2.58;;;;;;;28.07;nan;94742.25;4932980;29;20043;-68
2022/10/17 10:38:29;;;;;;;4.50;2.43;;;;;;;27.89;nan;94739.94;4932242;29;21590;-68
2022/10/17 10:41:08;;;;;;;7.20;2.50;;;;;;;29.44;nan;94732.31;4933085;29;20040;-69
2022/10/17 10:43:45;;;;;;;6.65;2.13;;;;;;;28.13;nan;94739.44;4932082;29;20922;-69
2022/10/17 10:46:18;;;;;;;3.00;1.92;;;;;;;27.34;nan;94739.22;4932135;29;20061;-70
2022/10/17 10:48:52;;;;;;;4.18;2.15;;;;;;;28.33;nan;94741.22;4932618;29;20050;-69
2022/10/17 10:51:28;;;;;;;3.93;1.90;;;;;;;28.01;nan;94746.31;4931817;29;20116;-69
2022/10/17 10:54:04;;;;;;;7.80;2.20;;;;;;;29.16;nan;94732.44;4932451;29;20074;-69
2022/10/17 10:56:39;;;;;;;4.32;2.22;;;;;;;28.04;nan;94743.25;4931562;29;20733;-69
2022/10/17 10:59:22;;;;;;;4.85;2.10;;;;;;;28.48;nan;94724.03;4932247;29;20040;-67
2022/10/17 11:01:53;;;;;;;4.15;2.20;;;;;;;28.48;nan;94732.50;4932333;29;20035;-69
2022/10/17 11:04:54;;;;;;;6.20;2.03;;;;;;;28.38;nan;94732.00;4932048;29;20056;-68
2022/10/17 11:07:29;;;;;;;5.93;2.10;;;;;;;28.27;nan;94723.50;4931778;29;20048;-70
2022/10/17 11:10:07;;;;;;;6.43;2.10;;;;;;;29.27;nan;94713.34;4932490;29;20043;-68
2022/10/17 11:12:41;;;;;;;4.03;2.05;;;;;;;28.23;nan;94720.97;4914631;29;20427;-67
2022/10/17 11:15:19;;;;;;;4.57;1.90;;;;;;;28.27;nan;94715.84;4931986;29;20046;-68
2022/10/17 11:17:55;;;;;;;4.47;2.03;;;;;;;28.06;nan;94718.13;4932507;29;20035;-68
2022/10/17 11:20:39;;;;;;;5.35;2.15;;;;;;;28.06;nan;94712.47;4932046;29;20058;-69
2022/10/17 11:23:22;;;;;;;3.88;1.98;;;;;;;28.02;nan;94714.78;4931850;29;20040;-68
2022/10/17 11:25:52;;;;;;;3.33;1.88;;;;;;;27.92;nan;94712.75;4932496;29;20048;-69
2022/10/17 11:28:21;;;;;;;3.00;1.70;;;;;;;27.48;nan;94710.03;4931498;29;20054;-69
2022/10/17 11:30:59;;;;;;;5.13;2.13;;;;;;;27.17;nan;94715.81;4932248;29;20050;-68
2022/10/17 11:33:56;;;;;;;4.18;1.90;;;;;;;26.96;nan;94720.81;4931362;29;20872;-68
2022/10/17 11:36:30;;;;;;;4.85;2.00;;;;;;;26.37;nan;94720.19;4918364;29;20046;-68
2022/10/17 11:39:02;;;;;;;4.55;1.92;;;;;;;25.72;nan;94723.44;4932148;29;20053;-69
2022/10/17 11:41:37;;;;;;;6.75;2.03;;;;;;;25.00;nan;94727.69;4931317;29;20401;-68
2022/10/17 11:44:22;;;;;;;3.20;1.90;;;;;;;23.96;nan;94732.75;4931915;29;20040;-68
2022/10/17 11:46:58;;;;;;;4.75;2.10;;;;;;;23.74;nan;94725.47;4932132;29;20056;-68
2022/10/17 11:49:35;;;;;;;7.85;2.45;;;;;;;23.86;nan;94724.41;4931860;29;20456;-68
2022/10/17 11:52:20;;;;;;;4.60;2.10;;;;;;;24.43;nan;94725.34;4928757;29;20392;-68
2022/10/17 11:55:19;;;;;;;4.85;2.35;;;;;;;24.01;nan;94721.63;4931112;29;20493;-68
2022/10/17 11:57:59;;;;;;;5.03;2.50;;;;;;;23.77;nan;94713.31;4932002;29;20047;-69
2022/10/17 12:00:29;;;;;;;7.95;2.17;;;;;;;23.78;nan;94716.88;4931322;29;20048;-67
2022/10/17 12:03:20;;;;;;;6.15;2.30;;;;;;;23.94;nan;94713.59;4931913;29;20053;-68
2022/10/17 12:05:55;;;;;;;4.53;2.40;;;;;;;23.56;nan;94717.22;4928528;29;20865;-68
2022/10/17 12:08:41;;;;;;;5.55;2.47;;;;;;;23.19;nan;94717.56;4934960;29;20054;-68
2022/10/17 12:11:41;;;;;;;4.60;2.30;;;;;;;23.25;nan;94722.00;4935082;29;20044;-68
2022/10/17 12:14:33;;;;;;;4.90;2.50;;;;;;;22.99;nan;94718.16;4934879;29;20047;-68